White Plains, Kentucky
Current Conditions -  °F | °C
As of 11:35 AM on Monday 22 Dec 2014 (Local Time) from K2I0 Reporting Station
Overcast Overcast  
Wind Chill: 54°   Ceiling: 2100
Heat Index: 54°   Visibility: 10mi
Dew Point: 47°   Wind: 12mph
Humidity: 78%   Direction: 160°SSE
Pressure: 29.81"   Gusts: NA
Location:  37.18°N, 87.38°W
Report Text: K2I0 221735Z AUTO 16010KT 10SM OVC021 12/08 A2981 RMK AO2 T01200083
Loading
Personal Weather Stations






























Interactive Weather Map New forecast layout! Learn more

10-Day Weather Forecast

Advertisements
Track Severe Weather on mobile